createdAt,value
2018-06-13T00:02:14.357Z,3.10
2018-06-13T00:04:43.529Z,3.20
2018-06-13T00:07:12.719Z,2.80
2018-06-13T00:09:41.885Z,2.47
2018-06-13T00:12:11.061Z,2.70
2018-06-13T00:14:40.489Z,2.80
2018-06-13T00:17:09.669Z,2.60
2018-06-13T00:19:38.843Z,2.90
2018-06-13T00:22:08.018Z,2.90
2018-06-13T00:24:37.180Z,3.37
2018-06-13T00:27:06.392Z,3.00
2018-06-13T00:29:35.573Z,3.03
2018-06-13T00:32:04.766Z,3.00
2018-06-13T00:34:33.941Z,3.53
2018-06-13T00:37:03.122Z,3.07
2018-06-13T00:39:32.311Z,2.80
2018-06-13T00:42:01.482Z,2.70
2018-06-13T00:44:30.864Z,2.20
2018-06-13T00:47:00.043Z,2.30
2018-06-13T00:49:29.209Z,2.40
2018-06-13T00:51:58.392Z,2.83
2018-06-13T00:54:27.525Z,1.90
2018-06-13T00:56:56.656Z,2.33
2018-06-13T00:59:25.800Z,1.80
2018-06-13T01:01:54.939Z,1.80
2018-06-13T01:04:24.062Z,1.80
2018-06-13T01:06:53.204Z,2.07
2018-06-13T01:09:22.372Z,2.23
2018-06-13T01:11:51.517Z,2.07
2018-06-13T01:14:20.645Z,2.00
2018-06-13T01:16:50.055Z,2.30
2018-06-13T01:19:19.187Z,2.20
2018-06-13T01:21:48.352Z,2.60
2018-06-13T01:24:17.454Z,2.63
2018-06-13T01:26:46.586Z,2.60
2018-06-13T01:29:15.770Z,2.50
2018-06-13T01:31:44.856Z,2.77
2018-06-13T01:34:13.993Z,2.90
2018-06-13T01:36:43.282Z,2.53
2018-06-13T01:39:12.419Z,2.70
2018-06-13T01:41:41.549Z,2.50
2018-06-13T01:44:10.689Z,2.60
2018-06-13T01:46:39.817Z,2.77
2018-06-13T01:49:08.966Z,2.90
2018-06-13T01:51:38.101Z,3.10
2018-06-13T01:54:07.383Z,2.77
2018-06-13T01:56:36.281Z,2.60
2018-06-13T01:59:05.435Z,2.80
2018-06-13T02:01:34.568Z,2.50
2018-06-13T02:04:03.701Z,3.07
2018-06-13T02:06:32.842Z,2.87
2018-06-13T02:09:01.974Z,2.93
2018-06-13T02:11:31.097Z,3.13
2018-06-13T02:14:00.225Z,3.03
2018-06-13T02:16:29.385Z,3.10
2018-06-13T02:18:58.741Z,3.30
2018-06-13T02:21:27.873Z,3.20
2018-06-13T02:23:57.069Z,3.27
2018-06-13T02:26:26.253Z,3.07
2018-06-13T02:28:55.426Z,2.70
2018-06-13T02:31:24.635Z,3.30
2018-06-13T02:33:53.839Z,3.03
2018-06-13T02:36:23.014Z,3.60
2018-06-13T02:38:52.249Z,3.60
2018-06-13T02:41:21.418Z,4.00
2018-06-13T02:43:50.609Z,4.07
2018-06-13T02:46:20.023Z,4.57
2018-06-13T02:48:49.206Z,4.03
2018-06-13T02:51:18.382Z,4.83
2018-06-13T02:53:47.565Z,5.20
2018-06-13T02:56:16.746Z,5.43
2018-06-13T02:58:45.917Z,5.33
2018-06-13T03:01:15.105Z,4.83
2018-06-13T03:03:44.289Z,6.40
2018-06-13T03:06:13.456Z,6.50
2018-06-13T03:08:42.799Z,6.67
2018-06-13T03:11:11.966Z,7.00
2018-06-13T03:13:41.153Z,7.03
2018-06-13T03:16:10.329Z,7.80
2018-06-13T03:18:39.517Z,7.70
2018-06-13T03:21:08.717Z,7.33
2018-06-13T03:23:37.914Z,7.00
2018-06-13T03:26:07.066Z,7.17
2018-06-13T03:28:36.209Z,7.63
2018-06-13T03:31:05.354Z,7.37
2018-06-13T03:33:34.538Z,7.93
2018-06-13T03:36:03.671Z,7.73
2018-06-13T03:38:32.797Z,8.43
2018-06-13T03:41:02.017Z,8.17
2018-06-13T03:43:31.158Z,9.33
2018-06-13T03:46:00.297Z,9.17
2018-06-13T03:48:29.474Z,9.03
2018-06-13T03:50:58.760Z,8.83
2018-06-13T03:53:27.894Z,22.30
2018-06-13T03:55:57.157Z,13.43
2018-06-13T03:58:26.290Z,12.37
2018-06-13T04:00:55.440Z,10.57
2018-06-13T04:03:24.667Z,10.17
2018-06-13T04:05:53.808Z,10.40
2018-06-13T04:08:22.950Z,10.60
2018-06-13T04:10:52.090Z,9.33
2018-06-13T04:13:21.245Z,10.80
2018-06-13T04:15:50.425Z,11.67
2018-06-13T04:18:19.593Z,11.40
2018-06-13T04:20:48.734Z,10.70
2018-06-13T04:23:17.858Z,9.57
2018-06-13T04:25:47.037Z,10.07
2018-06-13T04:28:16.165Z,8.87
2018-06-13T04:30:45.313Z,9.83
2018-06-13T04:33:14.448Z,9.20
2018-06-13T04:35:43.618Z,9.73
2018-06-13T04:38:12.761Z,9.20
2018-06-13T04:40:41.891Z,9.13
2018-06-13T04:43:11.037Z,10.00
2018-06-13T04:45:40.181Z,10.20
2018-06-13T04:48:09.380Z,11.33
2018-06-13T04:50:38.577Z,13.00
2018-06-13T04:53:07.761Z,12.93
2018-06-13T04:55:36.930Z,13.73
2018-06-13T04:58:06.109Z,14.40
2018-06-13T05:00:35.446Z,13.87
2018-06-13T05:03:04.643Z,12.90
2018-06-13T05:05:33.825Z,10.80
2018-06-13T05:08:03.024Z,9.57
2018-06-13T05:10:32.193Z,9.10
2018-06-13T05:13:01.374Z,7.97
2018-06-13T05:15:30.545Z,7.13
2018-06-13T05:17:59.729Z,7.07
2018-06-13T05:20:28.926Z,7.67
2018-06-13T05:22:58.105Z,7.77
2018-06-13T05:25:27.317Z,7.93
2018-06-13T05:27:56.482Z,7.87
2018-06-13T05:30:25.677Z,6.53
2018-06-13T05:32:54.853Z,6.53
2018-06-13T05:35:25.062Z,5.47
2018-06-13T05:37:54.229Z,5.80
2018-06-13T05:40:23.414Z,6.37
2018-06-13T05:42:52.593Z,6.10
2018-06-13T05:45:21.752Z,6.33
2018-06-13T05:47:50.940Z,6.10
2018-06-13T05:50:20.106Z,6.47
2018-06-13T05:52:49.367Z,6.73
2018-06-13T05:55:18.563Z,6.90
2018-06-13T05:57:47.749Z,6.73
2018-06-13T06:00:16.909Z,6.17
2018-06-13T06:02:46.100Z,7.17
2018-06-13T06:05:15.277Z,7.03
2018-06-13T06:07:44.573Z,6.73
2018-06-13T06:10:13.796Z,7.63
2018-06-13T06:12:42.971Z,7.43
2018-06-13T06:15:12.142Z,7.87
2018-06-13T06:17:41.316Z,8.97
2018-06-13T06:20:10.550Z,8.50
2018-06-13T06:22:39.709Z,9.07
2018-06-13T06:25:08.941Z,8.40
2018-06-13T06:27:38.081Z,8.10
2018-06-13T06:30:07.205Z,8.00
2018-06-13T06:32:36.350Z,7.37
2018-06-13T06:35:05.527Z,7.00
2018-06-13T06:37:34.657Z,7.17
2018-06-13T06:40:03.797Z,7.43
2018-06-13T06:42:32.927Z,8.33
2018-06-13T06:45:02.070Z,9.10
2018-06-13T06:47:31.208Z,9.43
2018-06-13T06:50:00.329Z,9.03
2018-06-13T06:52:29.495Z,9.97
2018-06-13T06:54:58.625Z,10.60
2018-06-13T06:57:27.982Z,10.60
2018-06-13T06:59:57.135Z,10.80
2018-06-13T07:02:26.266Z,14.63
2018-06-13T07:04:55.413Z,10.17
2018-06-13T07:07:24.573Z,10.30
2018-06-13T07:09:53.705Z,7.90
2018-06-13T07:12:22.833Z,7.73
2018-06-13T07:14:52.037Z,7.20
2018-06-13T07:17:21.173Z,7.60
2018-06-13T07:19:50.325Z,8.40
2018-06-13T07:22:19.457Z,7.70
2018-06-13T07:24:48.865Z,7.53
2018-06-13T07:27:17.969Z,7.80
2018-06-13T07:29:47.120Z,8.10
2018-06-13T07:32:16.258Z,8.23
2018-06-13T07:34:45.627Z,7.90
2018-06-13T07:37:14.750Z,8.13
2018-06-13T07:39:43.890Z,7.77
2018-06-13T07:42:13.169Z,6.97
2018-06-13T07:44:42.293Z,8.13
2018-06-13T07:47:11.417Z,8.20
2018-06-13T07:49:40.659Z,9.13
2018-06-13T07:52:09.814Z,9.90
2018-06-13T07:54:39.012Z,9.57
2018-06-13T07:57:08.193Z,10.43
2018-06-13T07:59:37.389Z,9.97
2018-06-13T08:02:06.571Z,10.03
2018-06-13T08:04:35.762Z,9.53
2018-06-13T08:07:04.936Z,10.17
2018-06-13T08:09:34.120Z,9.40
2018-06-13T08:12:03.305Z,9.53
2018-06-13T08:14:32.498Z,10.03
2018-06-13T08:17:01.894Z,10.23
2018-06-13T08:19:31.081Z,10.33
2018-06-13T08:22:00.266Z,10.00
2018-06-13T08:24:34.833Z,9.13
2018-06-13T08:27:04.037Z,9.50
2018-06-13T08:29:33.206Z,9.47
2018-06-13T08:32:02.401Z,10.93
2018-06-13T08:34:31.353Z,10.47
2018-06-13T08:37:00.550Z,10.13
2018-06-13T08:39:29.731Z,10.20
2018-06-13T08:41:58.929Z,11.73
2018-06-13T08:44:28.113Z,11.73
2018-06-13T08:46:57.325Z,11.53
2018-06-13T08:49:26.611Z,12.03
2018-06-13T08:51:55.793Z,12.13
2018-06-13T08:54:24.981Z,11.93
2018-06-13T08:56:54.165Z,13.97
2018-06-13T08:59:23.354Z,14.17
2018-06-13T09:01:52.550Z,13.63
2018-06-13T09:04:21.690Z,13.90
2018-06-13T09:06:50.821Z,13.03
2018-06-13T09:09:19.965Z,14.07
2018-06-13T09:11:49.135Z,14.23
2018-06-13T09:14:18.300Z,14.53
2018-06-13T09:16:47.425Z,14.40
2018-06-13T09:19:16.590Z,14.80
2018-06-13T09:21:45.945Z,15.70
2018-06-13T09:24:15.081Z,16.27
2018-06-13T09:26:44.213Z,15.97
2018-06-13T09:29:13.356Z,15.23
2018-06-13T09:31:42.485Z,16.97
2018-06-13T09:34:11.625Z,15.00
2018-06-13T09:36:41.032Z,16.07
2018-06-13T09:39:10.165Z,16.07
2018-06-13T09:41:44.486Z,16.07
2018-06-13T09:44:13.613Z,15.17
2018-06-13T09:46:48.917Z,16.07
2018-06-13T09:49:11.894Z,16.57
2018-06-13T09:51:41.029Z,16.53
2018-06-13T09:54:10.174Z,16.17
2018-06-13T09:56:39.355Z,16.37
2018-06-13T09:59:13.649Z,15.87
2018-06-13T10:02:19.089Z,16.97
2018-06-13T10:04:48.982Z,17.17
2018-06-13T10:07:18.231Z,16.77
2018-06-13T10:09:47.354Z,17.27
2018-06-13T10:12:16.509Z,16.80
2018-06-13T10:14:45.680Z,17.30
2018-06-13T10:17:14.790Z,17.00
2018-06-13T10:19:43.929Z,15.90
2018-06-13T10:22:13.100Z,17.27
2018-06-13T10:24:42.221Z,16.27
2018-06-13T10:27:16.541Z,14.80
2018-06-13T10:29:45.715Z,15.37
2018-06-13T10:32:14.851Z,15.50
2018-06-13T10:34:43.993Z,19.90
2018-06-13T10:37:13.132Z,14.53
2018-06-13T10:39:42.265Z,16.73
2018-06-13T10:42:11.402Z,21.63
2018-06-13T10:44:40.554Z,16.90
2018-06-13T10:47:09.694Z,17.67
2018-06-13T10:49:38.899Z,15.40
2018-06-13T10:52:08.034Z,14.90
2018-06-13T10:54:37.474Z,16.90
2018-06-13T10:57:07.645Z,14.73
2018-06-13T10:59:36.802Z,15.13
2018-06-13T11:02:06.452Z,14.90
2018-06-13T11:04:35.610Z,16.10
2018-06-13T11:07:04.849Z,14.73
2018-06-13T11:09:34.039Z,15.20
2018-06-13T11:12:03.226Z,14.57
2018-06-13T11:14:32.426Z,14.77
2018-06-13T11:17:01.634Z,13.20
2018-06-13T11:19:30.818Z,13.87
2018-06-13T11:22:00.019Z,21.33
2018-06-13T11:24:29.206Z,16.13
2018-06-13T11:26:58.393Z,14.27
2018-06-13T11:29:27.596Z,14.83
2018-06-13T11:31:56.798Z,15.40
2018-06-13T11:34:25.941Z,14.83
2018-06-13T11:36:55.078Z,14.73
2018-06-13T11:39:24.218Z,13.60
2018-06-13T11:41:53.362Z,15.00
2018-06-13T11:44:22.497Z,30.00
2018-06-13T11:46:51.665Z,15.53
2018-06-13T11:49:20.794Z,13.93
2018-06-13T11:51:49.945Z,14.87
2018-06-13T11:54:19.093Z,15.80
2018-06-13T11:56:48.290Z,15.00
2018-06-13T11:59:17.477Z,15.50
2018-06-13T12:01:46.712Z,13.77
2018-06-13T12:04:16.029Z,14.80
2018-06-13T12:06:45.165Z,20.27
2018-06-13T12:09:14.297Z,15.60
2018-06-13T12:11:43.450Z,14.77
2018-06-13T12:14:12.593Z,15.43
2018-06-13T12:16:41.730Z,14.60
2018-06-13T12:19:10.864Z,14.53
2018-06-13T12:21:40.031Z,14.53
2018-06-13T12:24:09.301Z,14.93
2018-06-13T12:26:38.474Z,14.57
2018-06-13T12:29:07.621Z,15.50
2018-06-13T12:31:36.778Z,13.73
2018-06-13T12:34:06.257Z,14.13
2018-06-13T12:36:35.732Z,13.97
2018-06-13T12:39:07.657Z,13.27
2018-06-13T12:41:36.804Z,13.30
2018-06-13T12:44:05.934Z,12.90
2018-06-13T12:46:35.341Z,12.33
2018-06-13T12:49:04.494Z,13.90
2018-06-13T12:51:33.629Z,14.00
2018-06-13T12:54:03.393Z,13.73
2018-06-13T12:56:32.753Z,13.83
2018-06-13T12:59:01.957Z,13.50
2018-06-13T13:01:31.251Z,14.20
2018-06-13T13:04:00.398Z,13.97
2018-06-13T13:06:29.525Z,13.37
2018-06-13T13:08:58.685Z,12.17
2018-06-13T13:11:27.887Z,13.50
2018-06-13T13:14:03.920Z,15.23
2018-06-13T13:16:33.128Z,14.13
2018-06-13T13:19:02.312Z,14.13
2018-06-13T13:21:31.269Z,14.83
2018-06-13T13:24:00.449Z,14.63
2018-06-13T13:26:29.646Z,14.37
2018-06-13T13:28:58.835Z,14.50
2018-06-13T13:31:28.026Z,14.97
2018-06-13T13:33:57.216Z,15.07
2018-06-13T13:36:26.394Z,14.13
2018-06-13T13:38:55.594Z,15.37
2018-06-13T13:41:24.782Z,15.20
2018-06-13T13:43:53.969Z,15.53
2018-06-13T13:46:23.162Z,15.23
2018-06-13T13:48:52.326Z,15.53
2018-06-13T13:51:21.304Z,15.37
2018-06-13T13:53:50.440Z,15.87
2018-06-13T13:56:19.573Z,15.87
2018-06-13T13:58:48.751Z,15.17
2018-06-13T14:01:17.877Z,15.53
2018-06-13T14:03:47.018Z,14.97
2018-06-13T14:06:16.161Z,13.87
2018-06-13T14:08:45.306Z,15.10
2018-06-13T14:11:14.489Z,14.67
2018-06-13T14:13:43.629Z,13.93
2018-06-13T14:16:12.805Z,14.03
2018-06-13T14:18:41.941Z,14.00
2018-06-13T14:21:11.125Z,13.13
2018-06-13T14:23:40.270Z,13.83
2018-06-13T14:26:09.417Z,13.20
2018-06-13T14:28:38.569Z,13.30
2018-06-13T14:31:07.729Z,12.93
2018-06-13T14:33:36.869Z,13.60
2018-06-13T14:36:06.149Z,13.47
2018-06-13T14:38:35.292Z,12.70
2018-06-13T14:41:04.435Z,13.17
2018-06-13T14:43:33.566Z,12.00
2018-06-13T14:46:02.718Z,13.03
2018-06-13T14:48:31.865Z,11.57
2018-06-13T14:51:01.017Z,12.70
2018-06-13T14:53:30.393Z,12.87
2018-06-13T14:56:04.808Z,12.40
2018-06-13T14:58:43.189Z,13.23
2018-06-13T15:01:12.346Z,12.00
2018-06-13T15:03:42.233Z,13.03
2018-06-13T15:06:11.656Z,11.70
2018-06-13T15:08:40.785Z,12.70
2018-06-13T15:11:09.930Z,12.67
2018-06-13T15:13:39.077Z,11.90
2018-06-13T15:16:08.217Z,12.20
2018-06-13T15:18:37.349Z,12.47
2018-06-13T15:21:06.697Z,12.07
2018-06-13T15:23:35.845Z,12.13
2018-06-13T15:26:05.021Z,12.17
2018-06-13T15:28:34.162Z,11.23
2018-06-13T15:31:03.306Z,10.90
2018-06-13T15:33:32.438Z,10.97
2018-06-13T15:36:01.594Z,10.60
2018-06-13T15:38:31.006Z,11.60
2018-06-13T15:40:59.908Z,11.10
2018-06-13T15:43:29.049Z,11.83
2018-06-13T15:45:58.201Z,11.17
2018-06-13T15:48:27.348Z,11.93
2018-06-13T15:50:56.522Z,11.20
2018-06-13T15:53:25.698Z,11.27
2018-06-13T15:55:54.856Z,11.43
2018-06-13T15:58:23.958Z,11.03
2018-06-13T16:00:53.116Z,11.57
2018-06-13T16:03:22.246Z,10.97
2018-06-13T16:05:51.445Z,11.03
2018-06-13T16:08:20.603Z,10.37
2018-06-13T16:10:49.760Z,10.93
2018-06-13T16:13:18.917Z,11.10
2018-06-13T16:15:48.052Z,11.83
2018-06-13T16:18:17.210Z,11.47
2018-06-13T16:20:46.522Z,11.53
2018-06-13T16:23:15.660Z,11.27
2018-06-13T16:25:44.814Z,10.20
2018-06-13T16:28:13.958Z,11.77
2018-06-13T16:30:43.105Z,11.57
2018-06-13T16:33:12.249Z,10.77
2018-06-13T16:35:41.398Z,11.20
2018-06-13T16:38:10.610Z,11.43
2018-06-13T16:40:39.807Z,10.13
2018-06-13T16:43:09.073Z,10.63
2018-06-13T16:45:38.270Z,10.17
2018-06-13T16:48:07.466Z,10.17
2018-06-13T16:51:47.221Z,9.43
2018-06-13T16:55:25.178Z,9.70
2018-06-13T16:57:54.398Z,9.50
2018-06-13T17:00:23.602Z,9.53
2018-06-13T17:02:52.970Z,9.90
2018-06-13T17:05:22.182Z,10.33
2018-06-13T17:07:51.729Z,10.07
2018-06-13T17:10:20.918Z,10.27
2018-06-13T17:12:50.389Z,10.13
2018-06-13T17:15:19.581Z,9.80
2018-06-13T17:17:48.765Z,10.30
2018-06-13T17:20:18.177Z,10.40
2018-06-13T17:22:47.366Z,10.27
2018-06-13T17:25:16.552Z,10.17
2018-06-13T17:27:45.822Z,10.20
2018-06-13T17:30:15.107Z,9.90
2018-06-13T17:32:44.247Z,10.30
2018-06-13T17:35:13.394Z,10.20
2018-06-13T17:37:42.572Z,11.43
2018-06-13T17:40:11.724Z,11.10
2018-06-13T17:42:40.857Z,11.03
2018-06-13T17:45:11.934Z,9.90
2018-06-13T17:47:41.655Z,10.20
2018-06-13T17:50:10.850Z,10.57
2018-06-13T17:52:39.985Z,10.30
2018-06-13T17:55:09.142Z,10.87
2018-06-13T17:57:38.279Z,10.80
2018-06-13T18:00:07.440Z,10.70
2018-06-13T18:02:36.577Z,10.00
2018-06-13T18:05:06.002Z,10.50
2018-06-13T18:07:35.397Z,10.37
2018-06-13T18:10:04.341Z,10.97
2018-06-13T18:12:33.469Z,11.90
2018-06-13T18:15:02.729Z,10.90
2018-06-13T18:17:32.181Z,10.07
2018-06-13T18:20:01.372Z,10.43
2018-06-13T18:22:30.481Z,11.00
2018-06-13T18:24:59.625Z,11.40
2018-06-13T18:27:28.780Z,9.90
2018-06-13T18:29:57.920Z,10.37
2018-06-13T18:32:27.060Z,9.50
2018-06-13T18:34:56.272Z,9.57
2018-06-13T18:37:25.860Z,9.07
2018-06-13T18:39:55.006Z,9.33
2018-06-13T18:42:24.141Z,9.00
2018-06-13T18:44:53.270Z,7.67
2018-06-13T18:47:22.405Z,8.17
2018-06-13T18:49:51.549Z,8.03
2018-06-13T18:52:20.706Z,7.93
2018-06-13T18:54:49.847Z,7.73
2018-06-13T18:57:18.966Z,7.90
2018-06-13T18:59:48.104Z,7.67
2018-06-13T19:02:17.229Z,8.30
2018-06-13T19:04:46.393Z,8.00
2018-06-13T19:07:15.714Z,8.07
2018-06-13T19:09:45.038Z,7.80
2018-06-13T19:12:14.217Z,7.10
2018-06-13T19:14:43.382Z,7.00
2018-06-13T19:17:12.546Z,7.27
2018-06-13T19:19:41.676Z,7.90
2018-06-13T19:22:10.838Z,12.70
2018-06-13T19:24:39.983Z,8.00
2018-06-13T19:27:09.426Z,7.77
2018-06-13T19:29:38.744Z,7.20
2018-06-13T19:32:08.030Z,7.30
2018-06-13T19:34:37.322Z,7.33
2018-06-13T19:37:06.558Z,6.87
2018-06-13T19:39:35.729Z,7.40
2018-06-13T19:42:04.920Z,6.80
2018-06-13T19:44:34.119Z,7.47
2018-06-13T19:47:08.760Z,6.73
2018-06-13T19:49:37.881Z,7.10
2018-06-13T19:52:07.024Z,6.17
2018-06-13T19:54:41.529Z,6.77
2018-06-13T19:57:10.705Z,7.00
2018-06-13T19:59:39.982Z,7.10
2018-06-13T20:02:09.118Z,7.13
2018-06-13T20:04:43.567Z,7.13
2018-06-13T20:07:12.622Z,7.17
2018-06-13T20:09:41.842Z,7.33
2018-06-13T20:12:46.789Z,6.73
2018-06-13T20:15:21.245Z,7.30
2018-06-13T20:17:55.678Z,7.47
2018-06-13T20:20:24.962Z,6.83
2018-06-13T20:22:54.277Z,7.10
2018-06-13T20:25:28.596Z,7.17
2018-06-13T20:28:03.154Z,6.97
2018-06-13T20:30:37.557Z,7.20
2018-06-13T20:33:06.692Z,7.53
2018-06-13T20:35:35.949Z,7.87
2018-06-13T20:38:05.157Z,7.93
2018-06-13T20:40:34.289Z,8.40
2018-06-13T20:43:03.521Z,7.87
2018-06-13T20:45:32.991Z,7.83
2018-06-13T20:48:02.389Z,7.60
2018-06-13T20:50:31.604Z,7.37
2018-06-13T20:53:01.078Z,7.77
2018-06-13T20:55:30.288Z,7.33
2018-06-13T20:57:59.506Z,7.10
2018-06-13T21:00:28.725Z,7.97
2018-06-13T21:02:57.905Z,7.73
2018-06-13T21:05:28.153Z,11.10
2018-06-13T21:07:57.357Z,8.40
2018-06-13T21:10:26.596Z,7.13
2018-06-13T21:12:55.782Z,7.37
2018-06-13T21:15:25.314Z,7.93
2018-06-13T21:17:54.492Z,7.20
2018-06-13T21:20:23.915Z,7.47
2018-06-13T21:22:53.001Z,7.80
2018-06-13T21:25:22.170Z,6.83
2018-06-13T21:27:51.369Z,7.50
2018-06-13T21:30:20.618Z,8.00
2018-06-13T21:32:49.765Z,7.33
2018-06-13T21:35:18.898Z,7.67
2018-06-13T21:37:48.058Z,6.60
2018-06-13T21:40:17.253Z,7.27
2018-06-13T21:42:46.336Z,6.43
2018-06-13T21:45:15.476Z,7.33
2018-06-13T21:47:44.614Z,7.00
2018-06-13T21:50:13.776Z,7.30
2018-06-13T21:52:43.052Z,7.13
2018-06-13T21:55:12.183Z,7.20
2018-06-13T21:57:41.313Z,7.17
2018-06-13T22:00:11.472Z,7.20
2018-06-13T22:02:40.670Z,7.57
2018-06-13T22:05:09.593Z,7.07
2018-06-13T22:07:38.733Z,7.00
2018-06-13T22:10:07.857Z,7.13
2018-06-13T22:12:36.993Z,7.50
2018-06-13T22:15:10.202Z,7.33
2018-06-13T22:17:39.345Z,7.40
2018-06-13T22:20:08.467Z,6.73
2018-06-13T22:22:37.601Z,6.30
2018-06-13T22:25:06.889Z,6.97
2018-06-13T22:27:36.042Z,6.57
2018-06-13T22:30:05.204Z,6.53
2018-06-13T22:32:34.325Z,6.20
2018-06-13T22:35:03.684Z,6.73
2018-06-13T22:37:33.025Z,7.23
2018-06-13T22:40:02.153Z,6.43
2018-06-13T22:42:31.570Z,6.67
2018-06-13T22:45:00.779Z,6.00
2018-06-13T22:47:29.882Z,5.73
2018-06-13T22:49:59.054Z,7.03
2018-06-13T22:52:28.224Z,6.37
2018-06-13T22:54:57.310Z,6.80
2018-06-13T22:57:26.513Z,6.40
2018-06-13T22:59:55.689Z,6.90
2018-06-13T23:02:24.869Z,7.10
2018-06-13T23:04:54.043Z,6.23
2018-06-13T23:07:23.244Z,7.70
2018-06-13T23:09:52.437Z,7.27
2018-06-13T23:12:21.904Z,6.53
2018-06-13T23:14:51.081Z,7.03
2018-06-13T23:17:20.278Z,8.27
2018-06-13T23:19:49.492Z,26.60
2018-06-13T23:22:18.589Z,10.13
2018-06-13T23:24:47.505Z,6.60
2018-06-13T23:27:16.641Z,6.83
2018-06-13T23:29:45.769Z,7.37
2018-06-13T23:32:14.901Z,6.47
2018-06-13T23:34:44.065Z,6.60
2018-06-13T23:37:13.203Z,6.93
2018-06-13T23:39:42.361Z,6.47
2018-06-13T23:42:11.493Z,6.47
2018-06-13T23:44:40.962Z,6.67
2018-06-13T23:47:10.094Z,6.53
2018-06-13T23:49:39.223Z,6.30
2018-06-13T23:52:08.364Z,6.60
2018-06-13T23:54:37.521Z,6.53
2018-06-13T23:57:06.693Z,6.60
2018-06-13T23:59:35.824Z,6.30
